Time;durP1;ratioP1;P1;durP2;ratioP2;P2;SDS_P1;SDS_P2;PMS_P1;PMS_P2;Temp;Humidity;BMP_temperature;BMP_pressure;BME280_temperature;BME280_humidity;BME280_pressure;Samples;Min_cycle;Max_cycle;Signal;HPM_P1;HPM_P2
2023/05/06 00:01:52;;;;;;;;;;;;;;;11.99;100.00;99668.34;5011727;28;884;-57
2023/05/06 00:04:19;;;;;;;;;;;;;;;11.96;100.00;99664.44;5011707;28;822;-57
2023/05/06 00:06:47;;;;;;;;;;;;;;;11.90;100.00;99668.88;5011818;28;863;-56
2023/05/06 00:09:14;;;;;;;;;;;;;;;11.91;100.00;99667.69;5011580;28;922;-57
2023/05/06 00:11:41;;;;;;;;;;;;;;;11.93;100.00;99658.97;5011340;28;1953;-57
2023/05/06 00:14:08;;;;;;;;;;;;;;;11.91;100.00;99662.13;5011632;28;810;-54
2023/05/06 00:16:37;;;;;;;;;;;;;;;11.96;100.00;99644.28;4993949;28;871;-57
2023/05/06 00:19:05;;;;;;;;;;;;;;;12.02;100.00;99645.38;5011569;28;807;-58
2023/05/06 00:21:32;;;;;;;;;;;;;;;12.05;100.00;99650.88;5011586;28;827;-56
2023/05/06 00:23:59;;;;;;;;;;;;;;;12.06;100.00;99646.13;5011575;28;815;-56
2023/05/06 00:26:26;;;;;;;;;;;;;;;12.08;100.00;99637.38;5011342;28;863;-56
2023/05/06 00:28:53;;;;;;;;;;;;;;;12.01;100.00;99630.75;5011402;28;835;-54
2023/05/06 00:31:19;;;;;;;;;;;;;;;12.00;100.00;99626.41;5010234;28;1996;-53
2023/05/06 00:33:46;;;;;;;;;;;;;;;12.02;100.00;99629.53;5011415;28;795;-52
2023/05/06 00:36:13;;;;;;;;;;;;;;;12.05;100.00;99623.19;5011459;28;890;-54
2023/05/06 00:38:40;;;;;;;;;;;;;;;12.05;100.00;99617.63;5011678;28;799;-56
2023/05/06 00:41:07;;;;;;;;;;;;;;;12.06;100.00;99621.19;5011546;28;1010;-55
2023/05/06 00:43:34;;;;;;;;;;;;;;;12.03;100.00;99619.22;5011339;28;897;-54
2023/05/06 00:46:01;;;;;;;;;;;;;;;12.03;100.00;99624.78;5012044;28;822;-55
2023/05/06 00:48:28;;;;;;;;;;;;;;;12.03;100.00;99613.69;5014973;28;882;-55
2023/05/06 00:50:55;;;;;;;;;;;;;;;12.01;100.00;99618.88;5014853;28;1945;-57
2023/05/06 00:53:21;;;;;;;;;;;;;;;12.13;100.00;99612.78;5014945;28;846;-58
2023/05/06 00:55:50;;;;;;;;;;;;;;;12.12;100.00;99618.72;5014630;28;927;-51
2023/05/06 00:58:18;;;;;;;;;;;;;;;12.15;100.00;99628.97;5014821;28;877;-55
2023/05/06 01:00:45;;;;;;;;;;;;;;;12.20;100.00;99626.50;5014744;28;866;-56
2023/05/06 01:03:12;;;;;;;;;;;;;;;12.22;100.00;99631.63;5014716;28;870;-54
2023/05/06 01:05:44;;;;;;;;;;;;;;;12.16;100.00;99633.31;5014720;28;847;-55
2023/05/06 01:08:25;;;;;;;;;;;;;;;12.18;100.00;99631.72;5014743;28;823;-55
2023/05/06 01:10:59;;;;;;;;;;;;;;;12.19;100.00;99626.94;5014287;28;1874;-53
2023/05/06 01:13:34;;;;;;;;;;;;;;;12.20;100.00;99629.28;5014561;28;783;-53
2023/05/06 01:16:01;;;;;;;;;;;;;;;12.15;100.00;99627.00;5013455;28;814;-55
2023/05/06 01:18:31;;;;;;;;;;;;;;;12.11;100.00;99628.25;5014481;28;987;-52
2023/05/06 01:20:59;;;;;;;;;;;;;;;12.08;100.00;99627.09;5013198;28;867;-56
2023/05/06 01:23:26;;;;;;;;;;;;;;;11.96;100.00;99630.41;5014305;28;811;-55
2023/05/06 01:25:52;;;;;;;;;;;;;;;11.88;100.00;99631.69;5014224;28;850;-56
2023/05/06 01:28:18;;;;;;;;;;;;;;;11.94;100.00;99628.06;5014234;28;815;-52
2023/05/06 01:31:03;;;;;;;;;;;;;;;12.01;100.00;99627.97;5014102;28;1903;-55
2023/05/06 01:33:36;;;;;;;;;;;;;;;12.08;100.00;99624.31;4996541;28;1464;-56
2023/05/06 01:36:07;;;;;;;;;;;;;;;12.16;100.00;99623.03;5014020;28;821;-56
2023/05/06 01:38:46;;;;;;;;;;;;;;;12.11;100.00;99614.41;5014338;28;775;-54
2023/05/06 01:41:14;;;;;;;;;;;;;;;12.05;100.00;99614.88;5014070;28;814;-51
2023/05/06 01:43:43;;;;;;;;;;;;;;;12.06;100.00;99615.66;5013896;28;917;-57
2023/05/06 01:46:19;;;;;;;;;;;;;;;11.98;100.00;99617.72;5012748;28;806;-55
2023/05/06 01:48:48;;;;;;;;;;;;;;;11.99;100.00;99607.41;5014147;28;811;-52
2023/05/06 01:51:15;;;;;;;;;;;;;;;11.96;100.00;99614.59;5013816;28;1882;-56
2023/05/06 01:53:42;;;;;;;;;;;;;;;11.96;100.00;99608.25;5013665;28;909;-54
2023/05/06 01:56:09;;;;;;;;;;;;;;;11.93;100.00;99609.13;5013830;28;846;-55
2023/05/06 01:58:35;;;;;;;;;;;;;;;11.90;100.00;99615.47;5012940;28;819;-53
2023/05/06 02:01:01;;;;;;;;;;;;;;;11.89;100.00;99616.69;5013778;28;872;-53
2023/05/06 02:03:28;;;;;;;;;;;;;;;11.89;100.00;99623.00;5013750;28;1006;-53
2023/05/06 02:05:55;;;;;;;;;;;;;;;11.88;100.00;99621.41;5013659;28;815;-54
2023/05/06 02:08:22;;;;;;;;;;;;;;;11.91;100.00;99623.38;5013514;28;882;-54
2023/05/06 02:10:49;;;;;;;;;;;;;;;11.89;100.00;99625.00;5013313;28;1886;-57
2023/05/06 02:13:17;;;;;;;;;;;;;;;11.94;100.00;99624.50;5013315;28;859;-55
2023/05/06 02:15:44;;;;;;;;;;;;;;;11.88;100.00;99624.19;5013319;28;837;-53
2023/05/06 02:18:11;;;;;;;;;;;;;;;11.88;100.00;99617.84;5013283;28;943;-53
2023/05/06 02:20:38;;;;;;;;;;;;;;;11.84;100.00;99613.16;5013292;28;811;-55
2023/05/06 02:23:04;;;;;;;;;;;;;;;11.78;100.00;99609.25;5013242;28;823;-55
2023/05/06 02:25:30;;;;;;;;;;;;;;;11.74;100.00;99604.97;5013264;28;815;-54
2023/05/06 02:27:57;;;;;;;;;;;;;;;11.73;100.00;99600.63;5013380;28;895;-54
2023/05/06 02:30:25;;;;;;;;;;;;;;;11.79;100.00;99598.97;5013075;28;1906;-55
2023/05/06 02:32:51;;;;;;;;;;;;;;;11.85;100.00;99589.78;5013152;28;831;-57
2023/05/06 02:35:18;;;;;;;;;;;;;;;11.83;100.00;99594.16;5013164;28;918;-52
2023/05/06 02:37:45;;;;;;;;;;;;;;;11.69;100.00;99569.44;5013267;28;1062;-55
2023/05/06 02:40:12;;;;;;;;;;;;;;;11.87;100.00;99583.81;5013123;28;858;-54
2023/05/06 02:42:39;;;;;;;;;;;;;;;11.93;100.00;99590.50;5012893;28;961;-54
2023/05/06 02:45:07;;;;;;;;;;;;;;;11.93;100.00;99596.03;5013039;28;823;-54
2023/05/06 02:47:34;;;;;;;;;;;;;;;11.96;100.00;99597.97;5012754;28;891;-56
2023/05/06 02:50:00;;;;;;;;;;;;;;;11.93;100.00;99601.59;5012904;28;1949;-56
2023/05/06 02:52:27;;;;;;;;;;;;;;;11.93;100.00;99611.88;5012743;28;858;-56
2023/05/06 02:54:54;;;;;;;;;;;;;;;11.91;100.00;99617.06;5012762;28;914;-55
2023/05/06 02:57:21;;;;;;;;;;;;;;;11.89;100.00;99633.28;4995076;28;1589;-55
2023/05/06 02:59:48;;;;;;;;;;;;;;;11.84;100.00;99624.22;5012923;28;838;-53
2023/05/06 03:02:15;;;;;;;;;;;;;;;11.81;100.00;99630.56;5012584;28;891;-55
2023/05/06 03:04:42;;;;;;;;;;;;;;;11.83;100.00;99627.41;5012696;28;889;-56
2023/05/06 03:07:09;;;;;;;;;;;;;;;11.80;100.00;99628.25;5012706;28;894;-54
2023/05/06 03:09:35;;;;;;;;;;;;;;;11.77;100.00;99634.59;5012835;28;947;-53
2023/05/06 03:12:03;;;;;;;;;;;;;;;11.69;100.00;99624.78;5012206;28;1945;-55
2023/05/06 03:14:30;;;;;;;;;;;;;;;11.68;100.00;99626.78;5012651;28;814;-55
2023/05/06 03:16:57;;;;;;;;;;;;;;;11.64;100.00;99621.28;5012500;28;910;-56
2023/05/06 03:19:24;;;;;;;;;;;;;;;11.64;100.00;99617.75;5012529;28;854;-54
2023/05/06 03:21:51;;;;;;;;;;;;;;;11.69;100.00;99619.25;5012321;28;803;-56
2023/05/06 03:24:18;;;;;;;;;;;;;;;11.72;100.00;99612.91;5012134;28;931;-55
2023/05/06 03:26:45;;;;;;;;;;;;;;;11.76;100.00;99611.66;5011472;28;843;-54
2023/05/06 03:29:12;;;;;;;;;;;;;;;11.89;100.00;99620.22;5012456;28;898;-53
2023/05/06 03:31:38;;;;;;;;;;;;;;;11.99;100.00;99622.06;5012294;28;1911;-53
2023/05/06 03:34:05;;;;;;;;;;;;;;;12.06;100.00;99615.66;5012524;28;819;-52
2023/05/06 03:36:32;;;;;;;;;;;;;;;12.11;100.00;99614.41;5012282;28;843;-56
2023/05/06 03:38:58;;;;;;;;;;;;;;;12.14;100.00;99624.63;5012358;28;902;-55
2023/05/06 03:41:25;;;;;;;;;;;;;;;12.22;100.00;99631.63;4994832;28;819;-55
2023/05/06 03:43:54;;;;;;;;;;;;;;;12.37;100.00;99633.00;5012667;28;835;-56
2023/05/06 03:46:21;;;;;;;;;;;;;;;12.43;100.00;99642.41;5012146;28;885;-56
2023/05/06 03:48:48;;;;;;;;;;;;;;;12.57;100.00;99655.28;5012012;28;859;-57
2023/05/06 03:51:15;;;;;;;;;;;;;;;12.73;100.00;99659.41;5012039;28;2028;-53
2023/05/06 03:53:42;;;;;;;;;;;;;;;12.87;100.00;99664.72;5012178;28;867;-55
2023/05/06 03:56:13;;;;;;;;;;;;;;;12.93;100.00;99667.78;5011875;28;906;-54
2023/05/06 03:58:40;;;;;;;;;;;;;;;12.98;100.00;99665.31;5011725;28;910;-56
2023/05/06 04:01:07;;;;;;;;;;;;;;;13.00;100.00;99662.91;5011931;28;905;-56
2023/05/06 04:03:34;;;;;;;;;;;;;;;13.03;100.00;99661.28;5011610;28;939;-55
2023/05/06 04:06:01;;;;;;;;;;;;;;;13.10;100.00;99674.22;5012060;28;795;-56
2023/05/06 04:08:27;;;;;;;;;;;;;;;13.22;100.00;99668.84;5011639;28;907;-56
2023/05/06 04:10:54;;;;;;;;;;;;;;;13.38;100.00;99676.53;5011447;28;1882;-54
2023/05/06 04:13:21;;;;;;;;;;;;;;;13.51;100.00;99670.38;5011532;28;895;-57
2023/05/06 04:15:49;;;;;;;;;;;;;;;13.55;100.00;99674.66;5011620;28;815;-58
2023/05/06 04:18:18;;;;;;;;;;;;;;;13.59;100.00;99680.91;5011787;28;978;-55
2023/05/06 04:20:48;;;;;;;;;;;;;;;13.59;100.00;99680.91;5011749;28;867;-56
2023/05/06 04:23:15;;;;;;;;;;;;;;;13.63;100.00;99675.28;5015357;28;910;-57
2023/05/06 04:25:47;;;;;;;;;;;;;;;13.72;100.00;99683.03;5015403;28;959;-57
2023/05/06 04:28:17;;;;;;;;;;;;;;;13.83;100.00;99689.97;5015263;28;974;-55
2023/05/06 04:30:43;;;;;;;;;;;;;;;13.87;100.00;99676.00;5015311;28;1907;-55
2023/05/06 04:33:10;;;;;;;;;;;;;;;13.94;100.00;99683.41;5015215;28;922;-56
2023/05/06 04:35:38;;;;;;;;;;;;;;;13.95;100.00;99680.19;5015114;28;946;-53
2023/05/06 04:38:04;;;;;;;;;;;;;;;13.96;100.00;99681.00;4997706;28;903;-53
2023/05/06 04:40:33;;;;;;;;;;;;;;;13.98;100.00;99678.56;5015092;28;966;-56
2023/05/06 04:43:01;;;;;;;;;;;;;;;14.12;100.00;99683.81;5015045;28;891;-55
2023/05/06 04:45:28;;;;;;;;;;;;;;;14.47;100.00;99698.16;5015236;28;847;-50
2023/05/06 04:47:55;;;;;;;;;;;;;;;14.58;100.00;99687.59;5015626;28;867;-56
2023/05/06 04:50:22;;;;;;;;;;;;;;;14.60;100.00;99701.06;5014916;28;1910;-51
2023/05/06 04:52:48;;;;;;;;;;;;;;;14.46;100.00;99693.78;5015079;28;873;-53
2023/05/06 04:55:16;;;;;;;;;;;;;;;14.32;100.00;99692.13;5014867;28;1061;-52
2023/05/06 04:57:42;;;;;;;;;;;;;;;14.26;100.00;99683.50;5015356;28;787;-55
2023/05/06 05:00:09;;;;;;;;;;;;;;;14.26;100.00;99691.84;5014809;28;876;-51
2023/05/06 05:02:36;;;;;;;;;;;;;;;14.29;100.00;99692.97;5014751;28;814;-55
2023/05/06 05:05:02;;;;;;;;;;;;;;;14.36;100.00;99698.41;5014765;28;874;-56
2023/05/06 05:07:29;;;;;;;;;;;;;;;14.38;100.00;99695.97;5014710;28;897;-57
2023/05/06 05:09:56;;;;;;;;;;;;;;;14.47;100.00;99698.16;5014389;28;1910;-56
2023/05/06 05:12:22;;;;;;;;;;;;;;;14.56;100.00;99709.50;4995333;28;839;-54
2023/05/06 05:14:50;;;;;;;;;;;;;;;14.62;100.00;99677.16;4994972;28;827;-54
2023/05/06 05:17:16;;;;;;;;;;;;;;;14.65;100.00;99700.53;4994952;28;847;-56
2023/05/06 05:19:43;;;;;;;;;;;;;;;14.77;100.00;99699.88;4995041;28;827;-55
2023/05/06 05:22:10;;;;;;;;;;;;;;;14.85;100.00;99701.28;4994719;28;838;-54
2023/05/06 05:24:36;;;;;;;;;;;;;;;14.90;100.00;99705.53;4994733;28;814;-54
2023/05/06 05:27:03;;;;;;;;;;;;;;;15.00;100.00;99703.69;4994722;28;886;-56
2023/05/06 05:29:30;;;;;;;;;;;;;;;15.26;100.00;99707.44;4994677;28;914;-52
2023/05/06 05:31:55;;;;;;;;;;;;;;;15.74;100.00;99705.78;4994197;28;1914;-55
2023/05/06 05:34:22;;;;;;;;;;;;;;;15.69;100.00;99704.28;4994002;28;922;-55
2023/05/06 05:36:49;;;;;;;;;;;;;;;15.90;100.00;99702.94;4994539;28;1243;-54
2023/05/06 05:39:16;;;;;;;;;;;;;;;16.46;100.00;99707.28;4994449;28;882;-54
2023/05/06 05:41:43;;;;;;;;;;;;;;;17.38;100.00;99706.75;4994519;28;855;-55
2023/05/06 05:44:10;;;;;;;;;;;;;;;18.10;97.44;99708.59;4994444;28;1066;-51
2023/05/06 05:58:48;;;;;;;;;;;;;;;18.69;89.50;99714.34;4994522;28;638;-57
2023/05/06 06:01:16;;;;;;;;;;;;;;;18.80;89.89;99713.13;4994082;28;854;-57
2023/05/06 06:03:43;;;;;;;;;;;;;;;18.97;87.23;99720.06;4994098;28;906;-51
2023/05/06 06:06:10;;;;;;;;;;;;;;;19.04;88.06;99719.75;4993905;28;918;-56
2023/05/06 06:08:37;;;;;;;;;;;;;;;18.86;86.17;99731.69;4993942;28;1034;-54
2023/05/06 06:11:04;;;;;;;;;;;;;;;18.88;87.88;99726.41;5002604;28;1895;-56
2023/05/06 06:13:31;;;;;;;;;;;;;;;19.17;88.38;99716.84;5013365;28;918;-52
2023/05/06 06:15:59;;;;;;;;;;;;;;;19.59;88.02;99719.84;5013643;28;921;-56
2023/05/06 06:18:25;;;;;;;;;;;;;;;19.78;84.63;99715.03;5013283;28;855;-55
2023/05/06 06:20:52;;;;;;;;;;;;;;;19.85;84.12;99721.59;5013222;28;839;-57
2023/05/06 06:23:19;;;;;;;;;;;;;;;20.11;82.73;99724.81;5013386;28;854;-54
2023/05/06 06:25:46;;;;;;;;;;;;;;;20.40;81.40;99729.91;5013135;28;978;-57
2023/05/06 06:28:13;;;;;;;;;;;;;;;20.60;81.38;99729.41;5013150;28;873;-53
2023/05/06 06:30:40;;;;;;;;;;;;;;;20.76;80.09;99731.03;5013037;28;1965;-53
2023/05/06 06:33:07;;;;;;;;;;;;;;;21.07;80.05;99730.75;5013133;28;855;-54
2023/05/06 06:35:34;;;;;;;;;;;;;;;21.00;78.74;99731.88;5012969;28;840;-55
2023/05/06 06:38:02;;;;;;;;;;;;;;;21.40;76.81;99743.97;5012916;28;935;-54
2023/05/06 06:40:29;;;;;;;;;;;;;;;22.01;76.05;99738.81;5013020;28;870;-51
2023/05/06 06:42:56;;;;;;;;;;;;;;;22.43;69.70;99737.03;5012798;28;973;-50
2023/05/06 06:45:23;;;;;;;;;;;;;;;21.94;70.28;99741.25;5012653;28;930;-55
2023/05/06 06:47:50;;;;;;;;;;;;;;;22.25;63.86;99734.41;5012870;28;818;-56
2023/05/06 06:50:17;;;;;;;;;;;;;;;22.92;61.17;99737.53;5012616;28;1953;-54
2023/05/06 06:52:43;;;;;;;;;;;;;;;23.19;60.65;99728.75;5012606;28;879;-53
2023/05/06 06:55:10;;;;;;;;;;;;;;;23.06;57.73;99728.28;5012754;28;839;-56
2023/05/06 06:57:38;;;;;;;;;;;;;;;22.28;59.51;99741.88;5012643;28;943;-55
2023/05/06 07:00:05;;;;;;;;;;;;;;;22.28;59.73;99734.22;5012677;28;815;-55
2023/05/06 07:02:32;;;;;;;;;;;;;;;22.60;59.68;99738.06;5012865;28;857;-54
2023/05/06 07:04:58;;;;;;;;;;;;;;;22.91;58.39;99735.97;5012732;28;882;-56
2023/05/06 07:07:41;;;;;;;;;;;;;;;22.77;58.74;99746.78;5012493;28;827;-55
2023/05/06 07:10:08;;;;;;;;;;;;;;;22.55;57.43;99744.41;5012258;28;1886;-54
2023/05/06 07:12:36;;;;;;;;;;;;;;;22.50;59.23;99745.06;5012661;28;894;-55
2023/05/06 07:15:05;;;;;;;;;;;;;;;22.35;58.96;99744.31;5012380;28;893;-56
2023/05/06 07:17:35;;;;;;;;;;;;;;;22.49;58.82;99749.16;5012282;28;846;-56
2023/05/06 07:20:02;;;;;;;;;;;;;;;22.76;57.04;99750.09;5012154;28;1186;-56
2023/05/06 07:22:29;;;;;;;;;;;;;;;22.61;58.55;99756.50;5012156;28;895;-56
2023/05/06 07:24:55;;;;;;;;;;;;;;;22.73;58.60;99749.03;5012185;28;795;-57
2023/05/06 07:27:23;;;;;;;;;;;;;;;23.08;57.05;99758.81;5012215;28;858;-56
2023/05/06 07:29:50;;;;;;;;;;;;;;;23.11;55.61;99746.53;5012285;28;942;-56
2023/05/06 07:32:16;;;;;;;;;;;;;;;23.82;55.84;99750.03;5012072;28;1910;-57
2023/05/06 07:34:44;;;;;;;;;;;;;;;24.40;52.56;99752.94;4994490;28;1745;-56
2023/05/06 07:37:10;;;;;;;;;;;;;;;24.91;51.45;99745.66;5011967;28;910;-56
2023/05/06 07:39:37;;;;;;;;;;;;;;;25.25;49.15;99748.72;5012022;28;866;-58
2023/05/06 07:42:03;;;;;;;;;;;;;;;24.79;47.83;99753.31;5011884;28;1037;-57
2023/05/06 07:44:30;;;;;;;;;;;;;;;24.51;49.92;99747.41;5012004;28;823;-57
2023/05/06 07:46:56;;;;;;;;;;;;;;;25.17;48.78;99753.28;5011830;28;887;-57
2023/05/06 07:49:24;;;;;;;;;;;;;;;26.05;48.95;99751.38;5011785;28;826;-57
2023/05/06 07:51:50;;;;;;;;;;;;;;;25.54;46.90;99746.78;5011985;28;1939;-57
2023/05/06 07:54:17;;;;;;;;;;;;;;;25.44;46.57;99763.22;5011910;28;878;-57
2023/05/06 07:56:44;;;;;;;;;;;;;;;25.19;47.24;99770.50;5011127;28;950;-57
2023/05/06 07:59:12;;;;;;;;;;;;;;;25.37;47.65;99758.81;5011935;28;807;-57
2023/05/06 08:01:39;;;;;;;;;;;;;;;25.22;46.30;99761.84;5011821;28;823;-57
2023/05/06 08:04:06;;;;;;;;;;;;;;;24.45;46.40;99769.16;5011944;28;851;-57
2023/05/06 08:06:32;;;;;;;;;;;;;;;23.90;48.49;99768.09;5011649;28;922;-57
2023/05/06 08:08:59;;;;;;;;;;;;;;;24.55;47.40;99770.56;5011697;28;1020;-56
2023/05/06 08:11:25;;;;;;;;;;;;;;;25.46;45.24;99777.66;5011262;28;1882;-57
2023/05/06 08:13:52;;;;;;;;;;;;;;;25.50;45.03;99772.53;5011669;28;819;-57
2023/05/06 08:16:19;;;;;;;;;;;;;;;24.65;44.27;99782.47;5011576;28;878;-57
2023/05/06 08:18:46;;;;;;;;;;;;;;;24.21;45.36;99760.97;5011394;28;911;-57
2023/05/06 08:21:13;;;;;;;;;;;;;;;24.88;46.43;99780.59;5011772;28;854;-57
2023/05/06 08:23:39;;;;;;;;;;;;;;;24.89;46.12;99776.47;5011546;28;926;-57
2023/05/06 08:26:09;;;;;;;;;;;;;;;24.69;46.17;99776.56;5011578;28;827;-57
2023/05/06 08:28:38;;;;;;;;;;;;;;;24.42;46.20;99770.16;5011525;28;1057;-57
2023/05/06 08:31:05;;;;;;;;;;;;;;;24.61;45.75;99781.91;5011406;28;1973;-59
2023/05/06 08:33:31;;;;;;;;;;;;;;;24.86;45.28;99783.94;5011451;28;945;-57
2023/05/06 08:35:58;;;;;;;;;;;;;;;24.27;44.83;99773.09;5011562;28;838;-57
2023/05/06 08:38:25;;;;;;;;;;;;;;;23.62;46.97;99767.75;5011600;28;931;-57
2023/05/06 08:40:52;;;;;;;;;;;;;;;24.02;47.01;99781.03;5011556;28;871;-57
2023/05/06 08:43:20;;;;;;;;;;;;;;;24.70;45.54;99772.47;5011430;28;814;-57
2023/05/06 08:45:48;;;;;;;;;;;;;;;25.10;45.54;99782.81;5011422;28;819;-57
2023/05/06 08:48:15;;;;;;;;;;;;;;;25.38;45.16;99783.00;5011141;28;946;-57
2023/05/06 08:50:42;;;;;;;;;;;;;;;24.80;44.31;99762.56;5011271;28;1941;-58
2023/05/06 08:53:10;;;;;;;;;;;;;;;24.55;45.38;99778.28;5011339;28;862;-57
2023/05/06 08:55:37;;;;;;;;;;;;;;;25.51;43.55;99776.13;5011106;28;959;-57
2023/05/06 08:58:05;;;;;;;;;;;;;;;25.85;43.79;99782.69;5011294;28;823;-57
2023/05/06 09:00:33;;;;;;;;;;;;;;;26.86;43.00;99774.38;5011171;28;890;-58
2023/05/06 09:03:00;;;;;;;;;;;;;;;27.14;42.10;99772.78;5011251;28;878;-57
2023/05/06 09:05:28;;;;;;;;;;;;;;;26.74;42.81;99774.91;5011303;28;890;-58
2023/05/06 09:07:56;;;;;;;;;;;;;;;26.66;39.99;99778.25;5013139;28;1149;-57
2023/05/06 09:10:23;;;;;;;;;;;;;;;27.01;40.55;99767.66;5014543;28;1882;-58
2023/05/06 09:12:52;;;;;;;;;;;;;;;26.32;40.38;99773.81;5014783;28;839;-57
2023/05/06 09:15:22;;;;;;;;;;;;;;;24.81;42.96;99781.03;5015294;28;839;-57
2023/05/06 09:17:49;;;;;;;;;;;;;;;24.53;45.20;99775.16;5014717;28;854;-57
2023/05/06 09:20:15;;;;;;;;;;;;;;;23.79;45.35;99782.84;5014718;28;812;-57
2023/05/06 09:22:42;;;;;;;;;;;;;;;24.15;46.53;99779.91;5014710;28;870;-57
2023/05/06 09:25:10;;;;;;;;;;;;;;;23.82;47.21;99779.03;5014486;28;946;-57
2023/05/06 09:27:36;;;;;;;;;;;;;;;23.35;48.46;99775.34;5014346;28;954;-57
2023/05/06 09:30:05;;;;;;;;;;;;;;;23.03;48.96;99769.50;5014330;28;1915;-57
2023/05/06 09:32:36;;;;;;;;;;;;;;;23.16;48.97;99772.00;5014308;28;818;-57
2023/05/06 09:35:04;;;;;;;;;;;;;;;23.24;48.65;99763.91;5014107;28;866;-57
2023/05/06 09:37:31;;;;;;;;;;;;;;;23.19;49.75;99759.75;5014046;28;871;-57
2023/05/06 10:11:04;;;;;;;;;;;;;;;22.65;49.88;99756.31;5188051;22;1882;-63
2023/05/06 10:13:31;;;;;;;;;;;;;;;22.46;51.10;99760.63;5015457;28;838;-63
2023/05/06 10:16:00;;;;;;;;;;;;;;;22.48;50.93;99769.34;5033343;28;845;-63
2023/05/06 10:18:29;;;;;;;;;;;;;;;22.52;49.98;99762.25;5014885;28;1205;-63
2023/05/06 10:20:58;;;;;;;;;;;;;;;22.96;49.40;99752.22;5033138;28;818;-63
2023/05/06 10:23:42;;;;;;;;;;;;;;;23.43;48.55;99748.28;5015281;28;1386;-63
2023/05/06 10:26:10;;;;;;;;;;;;;;;23.78;47.84;99750.25;5033089;28;818;-62
2023/05/06 10:28:40;;;;;;;;;;;;;;;23.65;48.30;99749.81;5032990;28;857;-62
2023/05/06 10:31:10;;;;;;;;;;;;;;;22.93;48.57;99756.75;5032873;28;1883;-63
2023/05/06 10:33:39;;;;;;;;;;;;;;;22.45;49.55;99751.41;5032938;28;869;-62
2023/05/06 10:36:13;;;;;;;;;;;;;;;22.31;49.79;99754.97;5032701;28;1132;-63
2023/05/06 10:38:42;;;;;;;;;;;;;;;22.25;49.66;99754.88;5033018;28;858;-63
2023/05/06 10:41:11;;;;;;;;;;;;;;;22.40;50.78;99752.06;5032762;28;886;-62
2023/05/06 10:43:42;;;;;;;;;;;;;;;22.78;50.09;99744.75;5032687;28;826;-63
2023/05/06 10:46:12;;;;;;;;;;;;;;;23.64;48.93;99740.59;5032676;28;889;-64
2023/05/06 10:48:59;;;;;;;;;;;;;;;23.63;48.88;99741.06;5014788;28;1374;-63
2023/05/06 10:51:27;;;;;;;;;;;;;;;23.28;48.42;99736.28;5031274;28;1914;-63
2023/05/06 10:54:11;;;;;;;;;;;;;;;22.91;49.18;99738.78;5032486;28;886;-62
2023/05/06 10:56:39;;;;;;;;;;;;;;;23.34;48.85;99731.50;5014697;28;1381;-63
2023/05/06 10:59:11;;;;;;;;;;;;;;;23.20;48.88;99727.47;5032404;28;802;-63
2023/05/06 11:01:42;;;;;;;;;;;;;;;22.60;49.56;99740.91;5014597;28;1425;-63
2023/05/06 11:04:12;;;;;;;;;;;;;;;22.03;49.91;99735.53;5032794;28;787;-63
2023/05/06 11:06:46;;;;;;;;;;;;;;;21.66;50.93;99747.09;5032243;28;885;-62
2023/05/06 11:09:20;;;;;;;;;;;;;;;21.43;50.81;99745.84;5032245;28;1014;-62
2023/05/06 11:11:55;;;;;;;;;;;;;;;21.47;51.42;99749.25;5031878;28;1883;-62
2023/05/06 11:14:34;;;;;;;;;;;;;;;21.51;51.36;99755.50;5032230;28;897;-63
2023/05/06 11:17:05;;;;;;;;;;;;;;;21.61;51.26;99750.56;5032083;28;922;-63
2023/05/06 11:19:36;;;;;;;;;;;;;;;22.77;50.04;99741.16;5032050;28;889;-63
2023/05/06 11:22:03;;;;;;;;;;;;;;;24.26;47.18;99729.22;5032087;28;889;-63
2023/05/06 11:24:40;;;;;;;;;;;;;;;24.09;47.12;99726.22;5031974;28;794;-63
2023/05/06 11:27:08;;;;;;;;;;;;;;;23.60;46.32;99728.75;5031871;28;826;-64
2023/05/06 11:29:34;;;;;;;;;;;;;;;23.24;45.70;99730.06;5031896;28;822;-63
2023/05/06 11:32:02;;;;;;;;;;;;;;;22.99;45.55;99734.31;5030947;28;1938;-65
2023/05/06 11:34:30;;;;;;;;;;;;;;;23.47;45.68;99728.31;5031799;28;946;-64
2023/05/06 11:36:57;;;;;;;;;;;;;;;25.21;43.73;99737.66;5031803;28;900;-62
2023/05/06 11:39:29;;;;;;;;;;;;;;;25.44;43.10;99740.59;5031638;28;845;-63
2023/05/06 11:42:05;;;;;;;;;;;;;;;24.63;44.57;99742.63;5031682;28;856;-64
2023/05/06 11:44:33;;;;;;;;;;;;;;;23.76;46.29;99749.19;5031762;28;901;-64
2023/05/06 11:47:04;;;;;;;;;;;;;;;23.49;46.48;99741.91;5031653;28;869;-63
2023/05/06 11:49:40;;;;;;;;;;;;;;;23.01;44.70;99740.25;5031663;28;870;-64
2023/05/06 11:52:08;;;;;;;;;;;;;;;22.80;44.80;99739.41;5031738;28;1960;-64
2023/05/06 11:54:35;;;;;;;;;;;;;;;22.69;45.38;99733.59;5031859;28;885;-63
2023/05/06 11:57:02;;;;;;;;;;;;;;;22.88;45.94;99734.16;5031649;28;838;-64
2023/05/06 11:59:30;;;;;;;;;;;;;;;22.82;45.37;99731.25;5031715;28;815;-63
2023/05/06 12:01:57;;;;;;;;;;;;;;;22.97;45.84;99726.34;5031599;28;815;-63
2023/05/06 12:04:25;;;;;;;;;;;;;;;23.34;45.48;99725.06;5031519;28;909;-63
2023/05/06 12:06:54;;;;;;;;;;;;;;;23.91;45.49;99727.31;5031749;28;854;-63
2023/05/06 12:09:22;;;;;;;;;;;;;;;24.01;44.62;99727.94;5031492;28;1016;-62
2023/05/06 12:11:50;;;;;;;;;;;;;;;23.72;44.78;99731.69;5031093;28;1965;-62
2023/05/06 12:14:17;;;;;;;;;;;;;;;23.60;44.95;99725.16;5031394;28;822;-64
2023/05/06 12:16:43;;;;;;;;;;;;;;;23.82;43.51;99721.81;5031404;28;810;-64
2023/05/06 12:19:10;;;;;;;;;;;;;;;25.09;43.19;99730.34;5031288;28;822;-63
2023/05/06 12:21:36;;;;;;;;;;;;;;;26.39;41.49;99733.63;5031381;28;822;-63
2023/05/06 12:24:05;;;;;;;;;;;;;;;26.66;40.33;99732.13;5031359;28;810;-63
2023/05/06 12:26:42;;;;;;;;;;;;;;;27.11;39.82;99723.53;5031328;28;802;-63
2023/05/06 12:29:10;;;;;;;;;;;;;;;27.06;39.59;99730.78;5031229;28;866;-63
2023/05/06 12:31:37;;;;;;;;;;;;;;;25.36;41.70;99731.81;5031182;28;1903;-64
2023/05/06 12:34:04;;;;;;;;;;;;;;;23.80;44.48;99736.44;5031194;28;814;-63
2023/05/06 12:36:31;;;;;;;;;;;;;;;22.94;46.31;99730.16;5031172;28;854;-64
2023/05/06 12:38:59;;;;;;;;;;;;;;;22.52;47.53;99734.09;5031044;28;881;-63
2023/05/06 12:41:55;;;;;;;;;;;;;;;22.31;48.43;99746.53;5031125;28;827;-65
2023/05/06 12:44:38;;;;;;;;;;;;;;;21.98;49.29;99736.97;5021939;28;1441;-63
2023/05/06 12:47:09;;;;;;;;;;;;;;;21.68;50.93;99738.16;5035029;28;937;-62
2023/05/06 12:49:47;;;;;;;;;;;;;;;21.37;52.33;99747.75;5016993;28;1406;-63
2023/05/06 12:52:15;;;;;;;;;;;;;;;21.46;52.95;99736.44;5034754;28;1885;-62
2023/05/06 12:54:42;;;;;;;;;;;;;;;23.16;51.17;99731.75;5034718;28;877;-63
2023/05/06 12:57:08;;;;;;;;;;;;;;;24.35;47.55;99731.09;5034784;28;862;-63
2023/05/06 12:59:35;;;;;;;;;;;;;;;25.01;44.86;99726.47;5034614;28;862;-62
2023/05/06 13:02:03;;;;;;;;;;;;;;;25.96;44.07;99728.19;5034679;28;846;-63
2023/05/06 13:04:30;;;;;;;;;;;;;;;26.81;40.42;99720.50;5034587;28;873;-64
2023/05/06 13:06:57;;;;;;;;;;;;;;;26.88;41.59;99729.28;5034373;28;807;-64
2023/05/06 13:09:24;;;;;;;;;;;;;;;27.32;40.63;99718.34;5034574;28;897;-63
2023/05/06 13:11:51;;;;;;;;;;;;;;;27.60;39.79;99726.75;5034214;28;1950;-63
2023/05/06 13:14:18;;;;;;;;;;;;;;;27.19;40.16;99720.97;5034392;28;771;-63
2023/05/06 13:16:46;;;;;;;;;;;;;;;27.33;40.00;99725.56;5034373;28;822;-64
2023/05/06 13:19:13;;;;;;;;;;;;;;;27.63;38.40;99720.03;5034190;28;898;-64
2023/05/06 13:21:39;;;;;;;;;;;;;;;27.75;38.34;99726.41;5034260;28;889;-64
2023/05/06 13:24:06;;;;;;;;;;;;;;;27.47;38.19;99721.63;5034158;28;885;-63
2023/05/06 13:26:33;;;;;;;;;;;;;;;26.45;38.87;99718.19;5034268;28;884;-64
2023/05/06 13:29:00;;;;;;;;;;;;;;;26.03;39.79;99713.50;5034034;28;843;-64
2023/05/06 13:31:29;;;;;;;;;;;;;;;25.63;41.34;99724.72;5016046;28;1886;-63
2023/05/06 13:33:55;;;;;;;;;;;;;;;25.43;40.99;99716.41;4999983;28;1271;-63
2023/05/06 13:36:22;;;;;;;;;;;;;;;25.26;41.42;99725.59;5033883;28;834;-62
2023/05/06 13:38:49;;;;;;;;;;;;;;;25.33;42.34;99715.88;5032704;28;1455;-63
2023/05/06 13:41:16;;;;;;;;;;;;;;;25.35;41.09;99724.63;5033875;28;799;-63
2023/05/06 13:43:42;;;;;;;;;;;;;;;25.01;42.72;99729.28;5033777;28;931;-62
2023/05/06 13:46:09;;;;;;;;;;;;;;;25.10;41.30;99733.97;5033950;28;851;-64
2023/05/06 13:48:36;;;;;;;;;;;;;;;25.16;40.44;99734.78;5034066;28;803;-62